RUK7EX EGSS-EGPH
Flight info
| Callsign | RUK7EX |
|---|---|
| Flight time | 0h 51m |
| Altitude | 34000 |
| Route | UTAVA Q75 BUZAD T420 TNT UN57 POL UN601 RIBEL DCT INPIP |
| Aircraft | B738/M-SDE2E3FGHIRWXY/LB1 |
Departure
| Time | 2026-04-22 19:50 |
|---|---|
| Airport | London Stansted Airport (EGSS) |
Arrival
| Time | 2026-04-22 20:41 |
|---|---|
| Airport | Edinburgh Airport (EGPH) |
| Time | Latitude | Longitude | Altitude | Speed | Heading |
|---|---|---|---|---|---|
| 2026-04-22 19:32 | 51.89155 | 0.25472 | 357 ft | 0 kts | 43° |
| 2026-04-22 19:42 | 51.89152 | 0.25467 | 357 ft | 2 kts | 43° |
| 2026-04-22 19:43 | 51.89129 | 0.25432 | 357 ft | 2 kts | 43° |
| 2026-04-22 19:43 | 51.89116 | 0.25415 | 357 ft | 3 kts | 31° |
| 2026-04-22 19:43 | 51.89097 | 0.25404 | 357 ft | 3 kts | 9° |
| 2026-04-22 19:44 | 51.89077 | 0.25405 | 357 ft | 3 kts | 347° |
| 2026-04-22 19:44 | 51.89058 | 0.25418 | 357 ft | 3 kts | 325° |
| 2026-04-22 19:44 | 51.89049 | 0.25432 | 357 ft | 0 kts | 313° |
| 2026-04-22 19:44 | 51.89049 | 0.25431 | 357 ft | 0 kts | 313° |
| 2026-04-22 19:45 | 51.89053 | 0.25424 | 357 ft | 2 kts | 313° |
| 2026-04-22 19:45 | 51.89081 | 0.25372 | 357 ft | 8 kts | 310° |
| 2026-04-22 19:45 | 51.89125 | 0.25287 | 357 ft | 12 kts | 303° |
| 2026-04-22 19:45 | 51.89094 | 0.25169 | 357 ft | 15 kts | 223° |
| 2026-04-22 19:46 | 51.89008 | 0.25040 | 357 ft | 19 kts | 223° |
| 2026-04-22 19:46 | 51.88901 | 0.24879 | 357 ft | 23 kts | 223° |
| 2026-04-22 19:46 | 51.88771 | 0.24684 | 357 ft | 28 kts | 223° |
| 2026-04-22 19:46 | 51.88620 | 0.24457 | 357 ft | 32 kts | 223° |
| 2026-04-22 19:47 | 51.88450 | 0.24202 | 357 ft | 35 kts | 223° |
| 2026-04-22 19:47 | 51.88259 | 0.23915 | 357 ft | 39 kts | 223° |
| 2026-04-22 19:47 | 51.88122 | 0.23710 | 357 ft | 39 kts | 223° |
| 2026-04-22 19:47 | 51.87875 | 0.23339 | 357 ft | 34 kts | 223° |
| 2026-04-22 19:48 | 51.87726 | 0.23114 | 357 ft | 20 kts | 227° |
| 2026-04-22 19:48 | 51.87735 | 0.22997 | 357 ft | 13 kts | 310° |
| 2026-04-22 19:48 | 51.87804 | 0.22872 | 357 ft | 17 kts | 312° |
| 2026-04-22 19:48 | 51.87889 | 0.22721 | 357 ft | 15 kts | 312° |
| 2026-04-22 19:49 | 51.87953 | 0.22681 | 357 ft | 11 kts | 29° |
| 2026-04-22 19:49 | 51.88070 | 0.22850 | 357 ft | 51 kts | 43° |
| 2026-04-22 19:49 | 51.88490 | 0.23482 | 357 ft | 114 kts | 43° |
| 2026-04-22 19:49 | 51.89188 | 0.24529 | 604 ft | 145 kts | 43° |
| 2026-04-22 19:50 | 51.89948 | 0.25669 | 1314 ft | 152 kts | 43° |
| 2026-04-22 19:50 | 51.90737 | 0.26854 | 2008 ft | 160 kts | 43° |
| 2026-04-22 19:50 | 51.91571 | 0.28129 | 2740 ft | 169 kts | 47° |
| 2026-04-22 19:50 | 51.92451 | 0.29459 | 3407 ft | 183 kts | 41° |
| 2026-04-22 19:51 | 51.93719 | 0.30044 | 4085 ft | 201 kts | 8° |
| 2026-04-22 19:51 | 51.95085 | 0.29390 | 4763 ft | 211 kts | 334° |
| 2026-04-22 19:51 | 51.96080 | 0.27631 | 5418 ft | 216 kts | 300° |
| 2026-04-22 19:51 | 51.96609 | 0.25329 | 6089 ft | 222 kts | 285° |
| 2026-04-22 19:52 | 51.96985 | 0.22848 | 6718 ft | 237 kts | 281° |
| 2026-04-22 19:52 | 51.97347 | 0.20105 | 7360 ft | 259 kts | 281° |
| 2026-04-22 19:52 | 51.97718 | 0.17166 | 8082 ft | 277 kts | 280° |
| 2026-04-22 19:52 | 51.98100 | 0.13988 | 8831 ft | 296 kts | 279° |
| 2026-04-22 19:53 | 51.98415 | 0.10587 | 9577 ft | 312 kts | 274° |
| 2026-04-22 19:53 | 51.98508 | 0.06976 | 10328 ft | 327 kts | 269° |
| 2026-04-22 19:53 | 51.98497 | 0.04481 | 10823 ft | 337 kts | 268° |
| 2026-04-22 19:53 | 51.99082 | -0.00628 | 11797 ft | 358 kts | 291° |
| 2026-04-22 19:54 | 52.00364 | -0.04120 | 12546 ft | 370 kts | 306° |
| 2026-04-22 19:54 | 52.02042 | -0.07377 | 13314 ft | 379 kts | 312° |
| 2026-04-22 19:54 | 52.03881 | -0.10483 | 14074 ft | 387 kts | 315° |
| 2026-04-22 19:54 | 52.05177 | -0.12538 | 14576 ft | 392 kts | 316° |
| 2026-04-22 19:55 | 52.07858 | -0.16628 | 15554 ft | 399 kts | 317° |
| 2026-04-22 19:55 | 52.09220 | -0.18669 | 16039 ft | 402 kts | 318° |
| 2026-04-22 19:55 | 52.11305 | -0.21782 | 16773 ft | 405 kts | 318° |
| 2026-04-22 19:55 | 52.13373 | -0.24867 | 17496 ft | 407 kts | 318° |
| 2026-04-22 19:56 | 52.15473 | -0.28007 | 18227 ft | 408 kts | 318° |
| 2026-04-22 19:56 | 52.17542 | -0.31113 | 18948 ft | 407 kts | 318° |
| 2026-04-22 19:56 | 52.19636 | -0.34255 | 19678 ft | 406 kts | 318° |
| 2026-04-22 19:56 | 52.21700 | -0.37350 | 20398 ft | 405 kts | 318° |
| 2026-04-22 19:57 | 52.23779 | -0.40461 | 21127 ft | 403 kts | 318° |
| 2026-04-22 19:57 | 52.25819 | -0.43510 | 21845 ft | 400 kts | 318° |
| 2026-04-22 19:57 | 52.27878 | -0.46582 | 22575 ft | 396 kts | 318° |
| 2026-04-22 19:57 | 52.29882 | -0.49595 | 23293 ft | 393 kts | 317° |
| 2026-04-22 19:58 | 52.31883 | -0.52638 | 24021 ft | 388 kts | 317° |
| 2026-04-22 19:58 | 52.33836 | -0.55616 | 24741 ft | 383 kts | 317° |
| 2026-04-22 19:58 | 52.35790 | -0.58593 | 25470 ft | 378 kts | 316° |
| 2026-04-22 19:58 | 52.37690 | -0.61475 | 26185 ft | 376 kts | 316° |
| 2026-04-22 19:59 | 52.39615 | -0.64409 | 26914 ft | 376 kts | 316° |
| 2026-04-22 20:00 | 52.50865 | -0.81721 | 31204 ft | 361 kts | 315° |
| 2026-04-22 20:00 | 52.52712 | -0.84578 | 31762 ft | 366 kts | 315° |
| 2026-04-22 20:01 | 52.54579 | -0.87470 | 32202 ft | 376 kts | 315° |
| 2026-04-22 20:01 | 52.56516 | -0.90471 | 32596 ft | 386 kts | 315° |
| 2026-04-22 20:01 | 52.58479 | -0.93515 | 32976 ft | 394 kts | 315° |
| 2026-04-22 20:01 | 52.60487 | -0.96631 | 33354 ft | 402 kts | 315° |
| 2026-04-22 20:02 | 52.62556 | -0.99844 | 33736 ft | 409 kts | 315° |
| 2026-04-22 20:02 | 52.64629 | -1.03067 | 34112 ft | 415 kts | 315° |
| 2026-04-22 20:02 | 52.66765 | -1.06392 | 34331 ft | 423 kts | 315° |
| 2026-04-22 20:02 | 52.68903 | -1.09731 | 34434 ft | 429 kts | 315° |
| 2026-04-22 20:03 | 52.71087 | -1.13151 | 34463 ft | 431 kts | 315° |
| 2026-04-22 20:03 | 52.75394 | -1.19909 | 34463 ft | 428 kts | 315° |
| 2026-04-22 20:04 | 52.79690 | -1.26664 | 34464 ft | 425 kts | 314° |
| 2026-04-22 20:04 | 52.83948 | -1.33374 | 34465 ft | 424 kts | 314° |
| 2026-04-22 20:05 | 52.88216 | -1.40122 | 34463 ft | 423 kts | 314° |
| 2026-04-22 20:05 | 52.92474 | -1.46874 | 34457 ft | 423 kts | 314° |
| 2026-04-22 20:06 | 52.96748 | -1.53582 | 34447 ft | 423 kts | 315° |
| 2026-04-22 20:06 | 53.01061 | -1.60190 | 34436 ft | 423 kts | 318° |
| 2026-04-22 20:07 | 53.06088 | -1.65354 | 34432 ft | 427 kts | 331° |
| 2026-04-22 20:07 | 53.11537 | -1.69365 | 34419 ft | 429 kts | 335° |
| 2026-04-22 20:08 | 53.17083 | -1.73049 | 34405 ft | 429 kts | 336° |
| 2026-04-22 20:08 | 53.22649 | -1.76646 | 34400 ft | 429 kts | 336° |
| 2026-04-22 20:09 | 53.28229 | -1.80230 | 34399 ft | 429 kts | 336° |
| 2026-04-22 20:09 | 53.33798 | -1.83809 | 34403 ft | 430 kts | 336° |
| 2026-04-22 20:10 | 53.39368 | -1.87395 | 34408 ft | 430 kts | 336° |
| 2026-04-22 20:10 | 53.44940 | -1.90991 | 34420 ft | 430 kts | 336° |
| 2026-04-22 20:11 | 53.50496 | -1.94586 | 34427 ft | 430 kts | 336° |
| 2026-04-22 20:11 | 53.56092 | -1.98225 | 34433 ft | 430 kts | 336° |
| 2026-04-22 20:12 | 53.61639 | -2.01849 | 34437 ft | 430 kts | 336° |
| 2026-04-22 20:12 | 53.67217 | -2.05496 | 34442 ft | 430 kts | 336° |
| 2026-04-22 20:13 | 53.72788 | -2.09220 | 34446 ft | 430 kts | 335° |
| 2026-04-22 20:13 | 53.78349 | -2.13040 | 34454 ft | 430 kts | 335° |
| 2026-04-22 20:14 | 53.83875 | -2.16872 | 34463 ft | 430 kts | 335° |
| 2026-04-22 20:14 | 53.89435 | -2.20653 | 34481 ft | 430 kts | 335° |
| 2026-04-22 20:15 | 53.94960 | -2.24438 | 34502 ft | 430 kts | 335° |
| 2026-04-22 20:15 | 54.00517 | -2.28285 | 34493 ft | 430 kts | 335° |
| 2026-04-22 20:16 | 54.06068 | -2.32169 | 34474 ft | 430 kts | 335° |
| 2026-04-22 20:16 | 54.11603 | -2.36057 | 34481 ft | 430 kts | 335° |
| 2026-04-22 20:17 | 54.17127 | -2.39945 | 34486 ft | 431 kts | 335° |
| 2026-04-22 20:17 | 54.22664 | -2.43847 | 34489 ft | 431 kts | 335° |
| 2026-04-22 20:18 | 54.28222 | -2.47767 | 34483 ft | 432 kts | 335° |
| 2026-04-22 20:18 | 54.30997 | -2.49727 | 34132 ft | 437 kts | 335° |
| 2026-04-22 20:18 | 54.33825 | -2.51721 | 33654 ft | 438 kts | 335° |
| 2026-04-22 20:18 | 54.36614 | -2.53683 | 33163 ft | 437 kts | 335° |
| 2026-04-22 20:19 | 54.39419 | -2.55654 | 32666 ft | 436 kts | 335° |
| 2026-04-22 20:19 | 54.42244 | -2.57640 | 32162 ft | 435 kts | 335° |
| 2026-04-22 20:19 | 54.45053 | -2.59621 | 31660 ft | 435 kts | 335° |
| 2026-04-22 20:19 | 54.47830 | -2.61582 | 31165 ft | 435 kts | 335° |
| 2026-04-22 20:20 | 54.50650 | -2.63575 | 30661 ft | 435 kts | 335° |
| 2026-04-22 20:20 | 54.53432 | -2.65545 | 30165 ft | 436 kts | 335° |
| 2026-04-22 20:20 | 54.56253 | -2.67547 | 29662 ft | 436 kts | 335° |
| 2026-04-22 20:20 | 54.59041 | -2.69531 | 29165 ft | 437 kts | 335° |
| 2026-04-22 20:21 | 54.61867 | -2.71550 | 28664 ft | 439 kts | 335° |
| 2026-04-22 20:21 | 54.64692 | -2.73578 | 28164 ft | 441 kts | 335° |
| 2026-04-22 20:21 | 54.67540 | -2.75632 | 27661 ft | 442 kts | 335° |
| 2026-04-22 20:21 | 54.70401 | -2.77705 | 27158 ft | 444 kts | 335° |
| 2026-04-22 20:22 | 54.73227 | -2.79764 | 26663 ft | 446 kts | 335° |
| 2026-04-22 20:22 | 54.76111 | -2.81874 | 26159 ft | 448 kts | 335° |
| 2026-04-22 20:22 | 54.78966 | -2.83969 | 25663 ft | 450 kts | 335° |
| 2026-04-22 20:22 | 54.81878 | -2.86078 | 25160 ft | 453 kts | 335° |
| 2026-04-22 20:23 | 54.84799 | -2.88192 | 24658 ft | 454 kts | 335° |
| 2026-04-22 20:23 | 54.87674 | -2.90424 | 24163 ft | 456 kts | 333° |
| 2026-04-22 20:23 | 54.90562 | -2.92783 | 23661 ft | 458 kts | 332° |
| 2026-04-22 20:23 | 54.93445 | -2.95208 | 23159 ft | 460 kts | 332° |
| 2026-04-22 20:24 | 54.96293 | -2.97646 | 22662 ft | 462 kts | 332° |
| 2026-04-22 20:24 | 54.99193 | -3.00159 | 22158 ft | 464 kts | 332° |
| 2026-04-22 20:24 | 55.02092 | -3.02693 | 21656 ft | 466 kts | 332° |
| 2026-04-22 20:24 | 55.04970 | -3.05225 | 21159 ft | 466 kts | 332° |
| 2026-04-22 20:25 | 55.07773 | -3.07699 | 20658 ft | 431 kts | 332° |
| 2026-04-22 20:25 | 55.10357 | -3.09979 | 20155 ft | 399 kts | 332° |
| 2026-04-22 20:25 | 55.12752 | -3.12095 | 19654 ft | 376 kts | 332° |
| 2026-04-22 20:25 | 55.15037 | -3.14120 | 19147 ft | 358 kts | 332° |
| 2026-04-22 20:26 | 55.17186 | -3.16032 | 18648 ft | 343 kts | 332° |
| 2026-04-22 20:26 | 55.19282 | -3.17906 | 18142 ft | 331 kts | 332° |
| 2026-04-22 20:26 | 55.21303 | -3.19722 | 17638 ft | 321 kts | 332° |
| 2026-04-22 20:26 | 55.23271 | -3.21499 | 17133 ft | 313 kts | 331° |
| 2026-04-22 20:27 | 55.25154 | -3.23204 | 16638 ft | 307 kts | 331° |
| 2026-04-22 20:27 | 55.27034 | -3.24911 | 16135 ft | 301 kts | 331° |
| 2026-04-22 20:27 | 55.28887 | -3.26600 | 15630 ft | 296 kts | 331° |
| 2026-04-22 20:27 | 55.30710 | -3.28268 | 15126 ft | 292 kts | 331° |
| 2026-04-22 20:28 | 55.32487 | -3.29903 | 14630 ft | 289 kts | 331° |
| 2026-04-22 20:28 | 55.34257 | -3.31540 | 14227 ft | 283 kts | 331° |
| 2026-04-22 20:28 | 55.35973 | -3.33134 | 13851 ft | 279 kts | 331° |
| 2026-04-22 20:28 | 55.37687 | -3.34734 | 13472 ft | 277 kts | 331° |
| 2026-04-22 20:29 | 55.39380 | -3.36321 | 13098 ft | 276 kts | 331° |
| 2026-04-22 20:29 | 55.41079 | -3.37922 | 12720 ft | 275 kts | 331° |
| 2026-04-22 20:29 | 55.42749 | -3.39503 | 12348 ft | 275 kts | 331° |
| 2026-04-22 20:29 | 55.44431 | -3.41103 | 11972 ft | 274 kts | 331° |
| 2026-04-22 20:30 | 55.46116 | -3.42714 | 11595 ft | 273 kts | 331° |
| 2026-04-22 20:30 | 55.47772 | -3.44306 | 11222 ft | 272 kts | 331° |
| 2026-04-22 20:30 | 55.49423 | -3.45902 | 10848 ft | 271 kts | 331° |
| 2026-04-22 20:30 | 55.51078 | -3.47511 | 10472 ft | 270 kts | 331° |
| 2026-04-22 20:31 | 55.52730 | -3.49126 | 10094 ft | 269 kts | 331° |
| 2026-04-22 20:31 | 55.54348 | -3.50716 | 9722 ft | 268 kts | 331° |
| 2026-04-22 20:31 | 55.55982 | -3.52332 | 9344 ft | 267 kts | 331° |
| 2026-04-22 20:31 | 55.57587 | -3.53929 | 8970 ft | 265 kts | 331° |
| 2026-04-22 20:32 | 55.59188 | -3.55532 | 8596 ft | 264 kts | 331° |
| 2026-04-22 20:32 | 55.60786 | -3.57142 | 8219 ft | 262 kts | 331° |
| 2026-04-22 20:32 | 55.62363 | -3.58738 | 7844 ft | 261 kts | 331° |
| 2026-04-22 20:32 | 55.63917 | -3.60319 | 7472 ft | 259 kts | 331° |
| 2026-04-22 20:33 | 55.65480 | -3.61918 | 7097 ft | 258 kts | 331° |
| 2026-04-22 20:33 | 55.67029 | -3.63509 | 6724 ft | 256 kts | 331° |
| 2026-04-22 20:33 | 55.68571 | -3.65098 | 6341 ft | 255 kts | 331° |
| 2026-04-22 20:33 | 55.70083 | -3.66664 | 5968 ft | 253 kts | 331° |
| 2026-04-22 20:34 | 55.71603 | -3.68251 | 5594 ft | 251 kts | 331° |
| 2026-04-22 20:34 | 55.73085 | -3.69805 | 5224 ft | 249 kts | 332° |
| 2026-04-22 20:34 | 55.74682 | -3.70894 | 4851 ft | 242 kts | 348° |
| 2026-04-22 20:34 | 55.76330 | -3.71474 | 4483 ft | 238 kts | 354° |
| 2026-04-22 20:35 | 55.77932 | -3.71897 | 4218 ft | 229 kts | 355° |
| 2026-04-22 20:35 | 55.79473 | -3.72279 | 3975 ft | 216 kts | 356° |
| 2026-04-22 20:35 | 55.80921 | -3.72640 | 3720 ft | 207 kts | 356° |
| 2026-04-22 20:35 | 55.82332 | -3.72870 | 3436 ft | 196 kts | 7° |
| 2026-04-22 20:36 | 55.83510 | -3.72012 | 3216 ft | 179 kts | 42° |
| 2026-04-22 20:36 | 55.84234 | -3.70276 | 3103 ft | 173 kts | 62° |
| 2026-04-22 20:36 | 55.84769 | -3.68377 | 2967 ft | 173 kts | 66° |
| 2026-04-22 20:36 | 55.85300 | -3.66451 | 2828 ft | 172 kts | 65° |
| 2026-04-22 20:37 | 55.85845 | -3.64605 | 2701 ft | 169 kts | 63° |
| 2026-04-22 20:37 | 55.86419 | -3.62775 | 2578 ft | 169 kts | 62° |
| 2026-04-22 20:37 | 55.87006 | -3.60980 | 2460 ft | 169 kts | 61° |
| 2026-04-22 20:37 | 55.87610 | -3.59167 | 2329 ft | 169 kts | 61° |
| 2026-04-22 20:38 | 55.88210 | -3.57386 | 2226 ft | 168 kts | 60° |
| 2026-04-22 20:38 | 55.88807 | -3.55615 | 2148 ft | 166 kts | 60° |
| 2026-04-22 20:38 | 55.89360 | -3.53988 | 2053 ft | 139 kts | 60° |
| 2026-04-22 20:38 | 55.89839 | -3.52573 | 1889 ft | 132 kts | 60° |
| 2026-04-22 20:39 | 55.90306 | -3.51184 | 1726 ft | 130 kts | 60° |
| 2026-04-22 20:39 | 55.90773 | -3.49800 | 1574 ft | 129 kts | 59° |
| 2026-04-22 20:39 | 55.91239 | -3.48420 | 1417 ft | 130 kts | 59° |
| 2026-04-22 20:39 | 55.91702 | -3.47048 | 1245 ft | 130 kts | 59° |
| 2026-04-22 20:40 | 55.92166 | -3.45672 | 1065 ft | 130 kts | 59° |
| 2026-04-22 20:40 | 55.92631 | -3.44294 | 880 ft | 129 kts | 59° |
| 2026-04-22 20:40 | 55.93086 | -3.42944 | 723 ft | 127 kts | 59° |
| 2026-04-22 20:40 | 55.93545 | -3.41582 | 550 ft | 128 kts | 59° |
| 2026-04-22 20:41 | 55.94004 | -3.40217 | 360 ft | 128 kts | 59° |
| 2026-04-22 20:41 | 55.94456 | -3.38875 | 187 ft | 125 kts | 59° |
| 2026-04-22 20:41 | 55.94869 | -3.37645 | 144 ft | 92 kts | 59° |
| 2026-04-22 20:41 | 55.95092 | -3.36980 | 144 ft | 41 kts | 59° |
| 2026-04-22 20:42 | 55.95217 | -3.36610 | 144 ft | 28 kts | 59° |
| 2026-04-22 20:42 | 55.95253 | -3.36424 | 144 ft | 9 kts | 130° |
| 2026-04-22 20:42 | 55.95211 | -3.36368 | 144 ft | 8 kts | 148° |
| 2026-04-22 20:42 | 55.95163 | -3.36312 | 144 ft | 9 kts | 137° |
| 2026-04-22 20:43 | 55.95134 | -3.36205 | 144 ft | 10 kts | 108° |
| 2026-04-22 20:43 | 55.95110 | -3.36075 | 144 ft | 12 kts | 108° |
| 2026-04-22 20:43 | 55.95073 | -3.35939 | 144 ft | 13 kts | 118° |
| 2026-04-22 20:43 | 55.95018 | -3.35838 | 144 ft | 9 kts | 188° |
| 2026-04-22 20:44 | 55.94952 | -3.35875 | 144 ft | 10 kts | 167° |
| 2026-04-22 20:44 | 55.94921 | -3.35816 | 144 ft | 10 kts | 118° |
| 2026-04-22 20:44 | 55.94869 | -3.35647 | 144 ft | 13 kts | 118° |
| 2026-04-22 20:44 | 55.94823 | -3.35496 | 144 ft | 15 kts | 118° |
| 2026-04-22 20:45 | 55.94798 | -3.35413 | 144 ft | 10 kts | 119° |
| 2026-04-22 20:45 | 55.94762 | -3.35395 | 144 ft | 6 kts | 205° |
| 2026-04-22 20:45 | 55.94743 | -3.35413 | 144 ft | 2 kts | 209° |
| 2026-04-22 20:45 | 55.94733 | -3.35423 | 144 ft | 0 kts | 209° |